Flight Track Log - Related Links

Times and Time Zones

All times are in EDT time to prevent confusion due to time zone crossing. See the SWA440 flight status page for this flight to view local times or setup timezone preferences in your user account.

Time Position Orientation Groundspeed Altitude Reporting Facility
EDT Latitude Longitude Course Direction KTS MPH feet Rate Location/Type
Fri 08:16:44 AM 44.8872 -93.2697 256° West 178 205 3,300  Level FAA TRACON SMA TRACON (SMA)
Fri 08:17:03 AM 44.8831 -93.2936 256° West 203 234 4,400 3,300 Climbing FAA TRACON SMA TRACON (SMA)
Fri 08:17:24 AM 44.8772 -93.3186 252° West 216 249 5,500 3,805 Climbing FAA TRACON SMA TRACON (SMA)
Fri 08:17:44 AM 44.8689 -93.3492 249° West 221 254 7,000 3,077 Climbing FAA TRACON SMA TRACON (SMA)
Fri 08:18:03 AM 44.8506 -93.3656 212° Southwest 250 288 7,500 1,800 Climbing FAA TRACON SMA TRACON (SMA)
Fri 08:18:24 AM 44.8242 -93.3658 180° South 297 342 8,200 3,073 Climbing FAA TRACON SMA TRACON (SMA)
Fri 08:18:44 AM 44.7944 -93.3428 151° Southeast 326 375 9,600 3,450 Climbing FAA TRACON SMA TRACON (SMA)
Fri 08:19:04 AM 44.7733 -93.3167 139° Southeast 328 377 10,500 2,100 Climbing FAA TRACON SMA TRACON (SMA)
Fri 08:19:24 AM 44.7503 -93.2892 140° Southeast 345 397 11,000 2,615 Climbing FAA TRACON SMA TRACON (SMA)
Fri 08:19:43 AM 44.7192 -93.2533 141° Southeast 371 427 12,200 3,450 Climbing FAA TRACON SMA TRACON (SMA)
Fri 08:20:04 AM 44.6936 -93.2239 141° Southeast 382 440 13,300 3,300 Climbing FAA TRACON SMA TRACON (SMA)
Fri 08:20:23 AM 44.6681 -93.1939 140° Southeast 386 444 14,400 3,900 Climbing FAA TRACON SMA TRACON (SMA)
Fri 08:20:44 AM 44.6356 -93.1572 141° Southeast 390 449 15,900 3,512 Climbing FAA TRACON SMA TRACON (SMA)
Fri 08:21:04 AM 44.6097 -93.1272 140° Southeast 393 452 16,800 2,700 Climbing FAA TRACON SMA TRACON (SMA)
Fri 08:21:24 AM 44.5831 -93.0964 141° Southeast 400 460 17,700 3,750 Climbing FAA TRACON SMA TRACON (SMA)
Fri 08:21:44 AM 44.5494 -93.0572 140° Southeast 406 467 19,300 3,846 Climbing FAA TRACON SMA TRACON (SMA)
Fri 08:22:03 AM 44.5217 -93.0267 142° Southeast 412 474 20,200 2,850 Climbing FAA TRACON SMA TRACON (SMA)
Fri 08:22:24 AM 44.4922 -92.9986 146° Southeast 414 476 21,200 3,073 Climbing FAA TRACON SMA TRACON (SMA)
Fri 08:22:44 AM 44.4558 -92.9631 145° Southeast 415 478 22,300 2,850 Climbing FAA TRACON SMA TRACON (SMA)
Fri 08:23:04 AM 44.4258 -92.9350 146° Southeast 418 481 23,100 2,250 Climbing FAA TRACON SMA TRACON (SMA)
Fri 08:23:24 AM 44.3956 -92.9056 145° Southeast 425 489 23,800 2,615 Climbing FAA TRACON SMA TRACON (SMA)
Fri 08:23:43 AM 44.3575 -92.8694 146° Southeast 430 495 24,800 2,550 Climbing FAA TRACON SMA TRACON (SMA)
Fri 08:24:04 AM 44.3272 -92.8386 144° Southeast 436 502 25,500 2,049 Climbing FAA TRACON SMA TRACON (SMA)
Fri 08:24:24 AM 44.2961 -92.8089 146° Southeast 438 504 26,200 2,400 Climbing FAA TRACON SMA TRACON (SMA)
Fri 08:24:44 AM 44.2569 -92.7711 145° Southeast 443 510 27,100 2,850 Climbing FAA TRACON SMA TRACON (SMA)
Fri 08:25:04 AM 44.2256 -92.7414 146° Southeast 444 511 28,100 3,000 Climbing FAA TRACON SMA TRACON (SMA)
Fri 08:25:24 AM 44.1956 -92.7117 145° Southeast 435 501 29,100 2,250 Climbing FAA TRACON SMA TRACON (SMA)
Fri 08:25:44 AM 44.1572 -92.6750 146° Southeast 431 496 29,600 1,350 Climbing FAA TRACON SMA TRACON (SMA)
Fri 08:26:04 AM 44.1261 -92.6433 144° Southeast 442 509 30,000 1,231 Climbing FAA TRACON SMA TRACON (SMA)
Fri 08:26:23 AM 44.0939 -92.6142 147° Southeast 450 518 30,400 1,500 Climbing FAA TRACON SMA TRACON (SMA)
Fri 08:26:44 AM 44.0536 -92.5758 146° Southeast 454 522 31,000 878 Climbing FAA TRACON SMA TRACON (SMA)
Fri 08:27:04 AM 44.0217 -92.5464 146° Southeast 449 517 31,000  Level FAA TRACON SMA TRACON (SMA)
Fri 08:27:38 AM 43.9661 -92.5036 151° Southeast 447 514 31,000  Level Minneapolis Center
Fri 08:28:39 AM 43.8833 -92.4289 147° Southeast 447 514 31,000  Level Minneapolis Center
Fri 08:29:53 AM 43.7464 -92.2950 145° Southeast 444 511 31,000  Level Minneapolis Center
Fri 08:30:54 AM 43.6464 -92.2039 147° Southeast 436 502 31,000  Level Minneapolis Center
Fri 08:31:56 AM 43.5453 -92.1103 146° Southeast 439 505 31,000  Level Minneapolis Center
Fri 08:32:57 AM 43.4433 -92.0228 148° Southeast 437 503 31,000  Level Minneapolis Center
Fri 08:33:58 AM 43.3233 -91.9114 146° Southeast 436 502 31,000  Level Minneapolis Center
Fri 08:35:00 AM 43.2225 -91.8203 147° Southeast 437 503 31,000  Level Minneapolis Center
Fri 08:36:01 AM 43.1217 -91.7272 146° Southeast 438 504 31,000  Level Minneapolis Center
Fri 08:37:02 AM 43.0197 -91.6350 147° Southeast 439 505 31,000  Level Minneapolis Center
Fri 08:38:04 AM 42.9172 -91.5439 147° Southeast 438 504 31,000  Level Minneapolis Center
Fri 08:39:05 AM 42.8139 -91.4511 147° Southeast 436 502 31,000  Level Minneapolis Center
Fri 08:40:06 AM 42.7111 -91.3600 147° Southeast 435 501 31,000  Level Minneapolis Center
Fri 08:41:08 AM 42.6097 -91.2694 147° Southeast 436 502 31,000  Level Minneapolis Center
Fri 08:42:04 AM 42.5097 -91.1794 146° Southeast 436 502 31,000 -51 Level Chicago Center
Fri 08:43:06 AM 42.4100 -91.0922 147° Southeast 432 497 30,900 -1,306 Descending Chicago Center
Fri 08:44:08 AM 42.3114 -91.0050 147° Southeast 429 494 28,300 -2,419 Descending Chicago Center
Fri 08:45:10 AM 42.2136 -90.9189 147° Southeast 422 486 25,900 -2,098 Descending Chicago Center
Fri 08:46:11 AM 42.1183 -90.8372 148° Southeast 414 476 24,000 -1,024 Descending Chicago Center
Fri 08:47:13 AM 42.0019 -90.7364 147° Southeast 416 479 23,800 -484 Descending Chicago Center
Fri 08:48:15 AM 41.9050 -90.6531 147° Southeast 416 479 23,000 -387 Descending Chicago Center
Fri 08:49:17 AM 41.8106 -90.5714 147° Southeast 407 468 23,000  Level Chicago Center
Fri 08:50:19 AM 41.7114 -90.4847 147° Southeast 412 474 23,000  Level Chicago Center
Fri 08:51:20 AM 41.6358 -90.3669 131° Southeast 413 475 23,000  Level Chicago Center
Fri 08:52:22 AM 41.5639 -90.2428 128° Southeast 419 482 23,000  Level Chicago Center
Fri 08:53:24 AM 41.4900 -90.1253 130° Southeast 417 480 23,000  Level Chicago Center
Fri 08:54:26 AM 41.4175 -90.0047 129° Southeast 416 479 23,000 -1,122 Level Chicago Center
Fri 08:55:27 AM 41.3317 -89.8647 129° Southeast 406 467 20,700 -2,146 Descending Chicago Center
Fri 08:56:29 AM 41.2617 -89.7525 130° Southeast 396 456 18,600 -2,226 Descending Chicago Center
Fri 08:57:31 AM 41.1958 -89.6444 129° Southeast 380 437 16,100 -1,659 Descending Chicago Center
Fri 08:58:32 AM 41.1667 -89.5167 107° East 387 445 15,200 -439 Descending Chicago Center
Fri 08:59:34 AM 41.2072 -89.3839 68° East 384 442 15,200  Level Chicago Center
Fri 09:00:36 AM 41.2503 -89.2547 66° East 383 441 15,200 -195 Level Chicago Center
Fri 09:01:37 AM 41.2978 -89.1000 68° East 388 447 14,800 -1,122 Descending Chicago Center
Fri 09:02:39 AM 41.3386 -88.9733 67° East 378 435 12,900 -1,839 Descending Chicago Center
Fri 09:03:41 AM 41.3792 -88.8489 66° East 369 425 11,000 -1,561 Descending Chicago Center
Fri 09:04:42 AM 41.4167 -88.7294 67° East 354 407 9,700 -1,366 Descending Chicago Center
Fri 09:05:44 AM 41.4511 -88.6194 67° East 328 377 8,200 -1,306 Descending Chicago Center
Fri 09:06:46 AM 41.4864 -88.5114 66° East 319 367 7,000 -585 Descending Chicago Center
Fri 09:07:47 AM 41.5189 -88.4050 68° East 312 359 7,000  Level Chicago Center
Fri 09:08:49 AM 41.5314 -88.2933 81° East 306 352 7,000 -145 Level Chicago Center
Fri 09:09:51 AM 41.5358 -88.1525 88° East 314 361 6,700 -629 Descending Chicago Center
Fri 09:10:53 AM 41.5403 -88.0358 87° East 310 357 5,700 -1,073 Descending Chicago Center
Fri 09:11:54 AM 41.5439 -87.9214 88° East 307 353 4,500 -1,171 Descending Chicago Center
Fri 09:12:56 AM 41.5497 -87.8086 86° East 305 351 3,300 -968 Descending Chicago Center
Fri 09:13:58 AM 41.5797 -87.7119 67° East 300 345 2,500 -435 Descending Chicago Center
Fri 09:15:00 AM 41.6289 -87.6339 50° Northeast 286 329 2,400 -48 Descending Chicago Center
Fri 09:16:02 AM 41.6775 -87.6089 21° North 242 278 2,400 64 Level Chicago Center
Fri 09:16:34 AM 41.7000 -87.6333 321° Northwest 167 192 2,500 -261 Climbing Chicago TRACON
Fri 09:17:34 AM 41.7333 -87.6833 312° West 165 190 2,000 -347 Descending Chicago TRACON
Fri 09:18:35 AM 41.7833 -87.6667 14° North 195 224 1,800 -313 Descending Chicago TRACON
Fri 09:19:29 AM 41.8167 -87.7000 323° Northwest 148 170 1,400 -500 Descending Chicago TRACON
Fri 09:20:35 AM 41.8000 -87.7333 236° Southwest 125 144 800 -545 Descending Chicago TRACON

Login

Don't have an account? Register now (free) for customized features, flight alerts, and more!